Tiempo atmosférico en la estación meteorológica de Bardenas Reales, Base Aérea, Navarra (295 m.)

Fecha
DESCASC
Temp. máxima en grados centígrados (hora)
DESCASC
Temp. mínima en grados centígrados (hora)
DESCASC
Temp. media en grados centígrados
DESCASC
Racha de viento máxima en m/sg (hora)
DESCASC
Velocidad máxima media en intervalos de 10 minutos(hora)
DESCASC
Precipitaciones diarias en mm
DESCASC
Precipitaciones de 00:00 a 06:00 en mm
DESCASC
Precipitaciones de 06:00 a 12:00 en mm
DESCASC
Precipitaciones de 12:00 a 18:00 en mm
DESCASC
Precipitaciones de 18:00 a 24:00 en mm
DESCASC
23-11-2017 18 (16:10) 7.9 (07:10) 13 12.22 (05:20) 8.61 (14:00) 0 0 0 0 0
22-11-2017 16.7 (16:00) -3.7 (07:50) 6.5 8.89 (21:10) 6.67 (21:10) 0 0 0 0 0
21-11-2017 16.9 (16:00) -2.3 (07:30) 7.3 3.33 (19:10) 2.22 (00:40) 0 0 0 0 0
20-11-2017 16.7 (15:50) -1.3 (07:50) 7.7 3.33 (02:30) 2.5 (00:10) 0 0 0 0 0
19-11-2017 17.7 (15:30) 0.4 (00:00) 9.1 9.17 (15:30) 6.67 (15:40) 0 0 0 0 0
18-11-2017 16.6 (15:20) 7.6 (00:00) 12.1 14.17 (12:00) 10.28 (12:00) 0 0 0 0 0
17-11-2017 19.9 (15:40) -0.9 (-00:0) 9.5 11.94 (21:50) 8.61 (22:00) 0 0 0 0 0
16-11-2017 15.9 (15:40) -2 (-00:0) 6.9 4.17 (01:00) 3.61 (02:20) 0 0 0 0 0
15-11-2017 15.7 (16:30) -0.6 (-00:0) 7.5 11.67 (00:20) 8.06 (00:20) 0 0 0 0 0
14-11-2017 12 (14:00) 5.6 (00:00) 8.8 24.44 (05:10) 18.89 (05:10) 0 0 0 0 0
13-11-2017 13.7 (00:00) 6.6 (00:00) 10.1 18.33 (13:10) 12.78 (14:40) 0 0 0 0 0
12-11-2017 17.7 (14:20) 8.1 (00:00) 12.9 15.83 (22:50) 10.56 (15:50) 0 0 0 0 0
11-11-2017 15.8 (14:50) 10.9 (00:00) 13.3 15.28 (01:00) 10.83 (01:20) 0 0 0 0 0
10-11-2017 15 (14:50) 6.4 (00:00) 10.7 13.61 (17:10) 9.72 (17:10) 0 0 0 0 0
09-11-2017 12 (13:40) 4.2 (00:00) 8.1 14.72 (13:30) 11.11 (15:40) 0 0 0 0 0
08-11-2017 11.5 (13:30) 4.1 (00:00) 7.8 13.61 (11:20) 9.72 (11:50) 0 0 0 0 0
07-11-2017 14.4 (15:50) 5 (00:00) 9.7 18.89 (05:00) 13.33 (04:50) 0 0 0 0 0
06-11-2017 12.4 (14:20) 6.9 (00:00) 9.6 19.44 (14:20) 14.17 (14:30) 0.2 0.2 0 0 0
05-11-2017 13.7 (15:00) 9.1 (00:00) 11.4 15.28 (15:40) 11.39 (15:10) 0.2 0 0 0.2 0
04-11-2017 18.9 (14:30) 12.7 (00:00) 15.8 10 (04:50) 7.5 (20:20) 5.8 5.2 0.6 0 0
03-11-2017 21.3 (16:00) 11.6 (00:00) 16.4 9.72 (12:40) 7.22 (12:50) 0 0 0 0 0
02-11-2017 20.3 (15:30) 9.5 (07:10) 14.9 8.89 (16:30) 6.67 (16:40) 0 0 0 0 0
01-11-2017 20.9 (15:20) 8.5 (00:00) 14.7 8.61 (11:40) 6.67 (12:30) 0 0 0 0 0
31-10-2017 17.3 (15:50) 4.8 (00:00) 11 11.11 (00:50) 8.06 (00:50) 0 0 0 0 0
30-10-2017 18.6 (14:20) 10 (00:00) 14.3 18.61 (16:10) 13.61 (17:00) 0 0 0 0 0
29-10-2017 18.5 (14:00) 10.7 (00:00) 14.6 18.33 (16:30) 13.33 (14:50) 0 0 0 0 0
28-10-2017 19 (15:40) 12.6 (00:00) 15.8 18.89 (11:30) 13.89 (12:00) 0 0 0 0 0
27-10-2017 21.2 (14:10) 9.2 (00:00) 15.2 20 (15:40) 14.72 (15:20) 0 0 0 0 0
26-10-2017 25.2 (16:10) 7.2 (00:00) 16.2 6.39 (01:30) 5.56 (01:30) 0 0 0 0 0
25-10-2017 26.4 (17:20) 6.3 (00:00) 16.3 6.39 (16:50) 5.83 (23:50) 0 0 0 0 0

Gráficas

Temp. máximas Temp. mínimas Temp. medias Precipitaciones Rachas de viento máximas Velocidades máximas media en intervalos de 10 minutos

Datos horarios

Fecha y hora oficial Temperatura (ºC) Velocidad del viento (km/h) Dirección del viento Racha (km/h) Dirección de racha Precipitación (mm) Presión (hPa) Tendencia (hPa) Humedad (%)
2017-11-23 23:00:00 9.9 19 Este 26 Este 0 983 0.5 64
2017-11-23 22:00:00 10.3 16 Este 24 Este 0 983.3 1.4 62
2017-11-23 21:00:00 11 17 Este 23 Este 0 982.6 1.1 60
2017-11-23 20:00:00 11.7 14 Este 23 Este 0 982.5 1.4 57
2017-11-23 19:00:00 13.2 16 Este 27 Este 0 981.9 1.2 53
2017-11-23 18:00:00 14.3 22 Este 27 Este 0 981.5 1 50
2017-11-23 17:00:00 16.6 15 Este 27 Este 0 981.1 0.2 43
2017-11-23 16:00:00 17.9 20 Este 31 Este 0 980.7 -0.8 39
2017-11-23 15:00:00 17.3 26 Este 37 Este 0 980.5 -1.6 42
2017-11-23 14:00:00 16.7 31 Este 39 Este 0 980.9 -1.1 43
2017-11-23 13:00:00 16 24 Este 33 Este 0 981.5 -0.2 45
2017-11-23 12:00:00 14.7 24 Este 34 Este 0 982.1 1.3 48
2017-11-23 11:00:00 11.5 23 Este 35 Este 0 982 1.7 56
2017-11-23 10:00:00 10.4 23 Este 36 Este 0 981.7 2.1 59
2017-11-23 09:00:00 9.2 25 Sudeste 38 Este 0 980.8 1.8 65
2017-11-23 08:00:00 8.2 21 Sudeste 31 Sudeste 0 980.3 1.5 70
2017-11-23 07:00:00 8.1 20 Este 29 Este 0 979.6 0.6 72
2017-11-23 06:00:00 8.7 22 Este 44 Este 0 979 0.2 70
2017-11-23 05:00:00 9.3 29 Este 41 Este 0 978.8 0.1 67
2017-11-23 04:00:00 8.9 26 Este 36 Este 0 979 0.1 66
2017-11-23 03:00:00 8.9 25 Este 33 Este 0 978.8 0.1 64
2017-11-23 02:00:00 8.9 22 Este 33 Este 0 978.7 0 64
2017-11-23 01:00:00 9.2 24 Este 41 Sudeste 0 978.9 0.6 63
2017-11-23 00:00:00 8.5 19 Sudeste 26 Sudeste 0 978.7 0.3 66
2017-11-22 23:00:00 8.5 16 Sudeste 27 Este 0 978.7 0.4 65
2017-11-22 22:00:00 7.7 18 Sudeste 32 Este 0 978.3 0.3 68
2017-11-22 21:00:00 8.8 15 Sudeste 28 Este 0 978.4 0.6 62
2017-11-22 20:00:00 10.2 15 Sudeste 26 Sudeste 0 978.3 0.7 57
2017-11-22 19:00:00 10.7 8 Sudeste 16 Sur 0 978 0.2 53
2017-11-22 18:00:00 11.8 6 Sudeste 20 Sudeste 0 977.8 -0.6 49
2017-11-22 17:00:00 15.7 16 Este 25 Sudeste 0 977.6 -1.9 35
2017-11-22 16:00:00 16.6 19 Sudeste 30 Este 0 977.8 -2.6 33
2017-11-22 15:00:00 16 22 Este 31 Este 0 978.4 -3.2 38
2017-11-22 14:00:00 14.3 7 Sudeste 14 Sudeste 0 979.5 -2.8 42
2017-11-22 13:00:00 12 10 Este 16 Este 0 980.4 -2.2 51
2017-11-22 12:00:00 9 2 Sur 9 Este 0 981.6 -0.7 59
2017-11-22 11:00:00 5.2 3 Sur 8 Sudoeste 0 982.3 0.2 71
2017-11-22 10:00:00 2.4 0 Calma 7 Noroeste 0 982.6 0.2 80
2017-11-22 09:00:00 -2.2 4 Noroeste 6 Noroeste 0 982.3 -0.2 90
2017-11-22 08:00:00 -3.3 5 Norte 7 Norte 0 982.1 -0.8 90
2017-11-22 07:00:00 -3.3 3 Nordeste 6 Sudeste 0 982.4 -0.9 89
2017-11-22 06:00:00 -2.5 0 Calma 10 Noroeste 0 982.5 -1.1 89
2017-11-22 05:00:00 -1.8 6 Sudeste 9 Este 0 982.9 -0.8 91
2017-11-22 04:00:00 -0.8 3 Este 8 Nordeste 0 983.3 -0.8 91
2017-11-22 03:00:00 -0.1 5 Sudoeste 8 Oeste 0 983.6 -0.5 87
2017-11-22 02:00:00 2.2 7 Este 18 Este 0 983.7 -0.6 84
2017-11-22 01:00:00 2.2 7 Sudeste 17 Este 0 984.1 -0.1 75
2017-11-22 00:00:00 1.9 0 Calma 9 Oeste 0 984.1 -0.3 79
2017-11-21 23:00:00 1.5 6 Noroeste 8 Norte 0 984.3 -0.3 74
2017-11-21 22:00:00 3.1 3 Oeste 7 Noroeste 0 984.2 -0.3 71
2017-11-21 21:00:00 4.9 4 Noroeste 9 Oeste 0 984.4 0.2 68
2017-11-21 20:00:00 5.5 6 Noroeste 12 Este 0 984.6 0.3 63
2017-11-21 19:00:00 8.4 7 Este 10 Este 0 984.5 -0.1 60
2017-11-21 18:00:00 12.2 5 Este 7 Este 0 984.2 -1 42
2017-11-21 17:00:00 15.9 2 Norte 6 Sur 0 984.3 -1.9 32
2017-11-21 16:00:00 16.8 2 Sudoeste 5 Sudoeste 0 984.6 -2.5 31
2017-11-21 15:00:00 14.8 3 Norte 8 Oeste 0 985.2 -2.7 37
2017-11-21 14:00:00 14.2 2 Sudoeste 8 Sudoeste 0 986.2 -2.3 41
2017-11-21 13:00:00 12.1 4 Sur 8 Sudoeste 0 987.1 -1.3 50
2017-11-21 12:00:00 9.5 3 Sudoeste 6 Sudoeste 0 987.9 -0.5 59
2017-11-21 11:00:00 6.3 4 Sudoeste 6 Sudoeste 0 988.5 0.6 68
2017-11-21 10:00:00 2.6 2 Norte 4 Norte 0 988.4 0.8 80
2017-11-21 09:00:00 -1 2 Norte 4 Noroeste 0 988.4 1 80
2017-11-21 08:00:00 -2.1 0 Calma 2 Sudoeste 0 987.9 0.6 87
2017-11-21 07:00:00 -2.2 0 Calma 3 Sudoeste 0 987.6 0.2 87
2017-11-21 06:00:00 -1.7 3 Sudoeste 4 Sudoeste 0 987.4 -0.4 82
2017-11-21 05:00:00 -1.1 3 Sudoeste 4 Sudoeste 0 987.3 -0.5 83
2017-11-21 04:00:00 0.1 0 Calma 6 Oeste 0 987.4 -0.7 81
2017-11-21 03:00:00 0 5 Oeste 6 Noroeste 0 987.8 -0.3 85
2017-11-21 02:00:00 0.9 0 Calma 5 Noroeste 0 987.8 0 82
2017-11-21 01:00:00 2 4 Noroeste 10 Noroeste 0 988.1 0.6 81
2017-11-21 00:00:00 2.2 6 Noroeste 7 Noroeste 0 988.1 0.8 74
2017-11-20 23:00:00 2.9 3 Norte 5 Noroeste 0 987.8 0.6 71
2017-11-20 22:00:00 4 4 Noroeste 5 Noroeste 0 987.5 0.8 67
2017-11-20 21:00:00 5.2 0 Calma 4 Oeste 0 987.3 0.8 65
2017-11-20 20:00:00 6.7 3 Noroeste 4 Oeste 0 987.2 0.8 58
2017-11-20 19:00:00 9.5 0 Calma 7 Sudoeste 0 986.7 0.2 50
2017-11-20 18:00:00 12.7 5 Sudoeste 8 Sudoeste 0 986.5 -0.2 40
2017-11-20 17:00:00 16.3 0 Calma 5 Oeste 0 986.4 -1.2 32
2017-11-20 16:00:00 16.4 2 Oeste 5 Oeste 0 986.5 -1.9 32
2017-11-20 15:00:00 15.6 3 Oeste 7 Norte 0 986.7 -2.6 35
2017-11-20 14:00:00 13.6 4 Noroeste 9 Oeste 0 987.6 -2 39
2017-11-20 13:00:00 12.3 4 Noroeste 6 Norte 0 988.4 -0.9 43
2017-11-20 12:00:00 11.2 0 Calma 6 Sur 0 989.3 0.3 48
2017-11-20 11:00:00 8.5 2 Sudoeste 5 Sudoeste 0 989.6 0.9 58
2017-11-20 10:00:00 4.4 2 Oeste 5 Oeste 0 989.3 1 70
2017-11-20 09:00:00 1.1 0 Calma 4 Noroeste 0 989 0.9 78
2017-11-20 08:00:00 -1 2 Sudeste 4 Sudeste 0 988.7 1 86
2017-11-20 07:00:00 -0.4 5 Noroeste 6 Noroeste 0 988.3 0.7 83
2017-11-20 06:00:00 0.4 4 Sudeste 5 Sudeste 0 988.1 0.4 82
2017-11-20 05:00:00 0.3 4 Sur 5 Sudoeste 0 987.7 0.2 81
2017-11-20 04:00:00 1.1 2 Sudoeste 9 Este 0 987.6 0 81
2017-11-20 03:00:00 1.5 5 Sudeste 12 Sudeste 0 987.7 -0.1 78
2017-11-20 02:00:00 2.8 6 Sudeste 9 Sudeste 0 987.5 0 72
2017-11-20 01:00:00 4.4 3 Sudoeste 10 Noroeste 0 987.6 0.1 66
2017-11-20 00:00:00 6.5 8 Noroeste 13 Noroeste 0 987.8 0.8 59
2017-11-19 23:00:00 7.1 7 Oeste 13 Noroeste 0 987.5 0.9 54
2017-11-19 22:00:00 9.1 7 Noroeste 12 Oeste 0 987.5 1.3 49
2017-11-19 21:00:00 9.4 2 Sudoeste 10 Sudeste 0 987 1.3 45
2017-11-19 20:00:00 10.5 8 Norte 22 Noroeste 0 986.6 1.2 39
2017-11-19 19:00:00 12.1 6 Oeste 23 Noroeste 0 986.2 1 33
2017-11-19 18:00:00 12.8 11 Noroeste 26 Noroeste 0 985.7 0.2 32
2017-11-19 17:00:00 16.3 15 Oeste 31 Noroeste 0 985.4 -0.6 24
2017-11-19 16:00:00 17.4 21 Noroeste 33 Noroeste 0 985.2 -1.6 24
2017-11-19 15:00:00 17.4 21 Noroeste 31 Oeste 0 985.5 -2.1 25
2017-11-19 14:00:00 16 17 Noroeste 27 Oeste 0 986 -2 27
2017-11-19 13:00:00 13.9 15 Noroeste 22 Noroeste 0 986.8 -1.1 32
2017-11-19 12:00:00 11.4 12 Noroeste 21 Noroeste 0 987.6 0 45
2017-11-19 11:00:00 8.2 3 Sur 6 Oeste 0 988 0.7 69
2017-11-19 10:00:00 5.7 4 Sudoeste 8 Sudoeste 0 987.9 1 78
2017-11-19 09:00:00 2.4 2 Oeste 8 Sudoeste 0 987.6 0.8 90
2017-11-19 08:00:00 1 7 Sudoeste 9 Sudoeste 0 987.3 0.2 92
2017-11-19 07:00:00 1.5 7 Noroeste 9 Noroeste 0 986.9 0 91
2017-11-19 06:00:00 2.1 4 Sudoeste 9 Sur 0 986.8 -0.4 92
2017-11-19 05:00:00 3.1 4 Oeste 13 Noroeste 0 987.1 0.2 89
2017-11-19 04:00:00 4.1 0 Calma 9 Noroeste 0 986.9 -0.2 85
2017-11-19 03:00:00 5.2 7 Noroeste 13 Noroeste 0 987.2 0.3 82
2017-11-19 02:00:00 5.6 5 Oeste 11 Norte 0 986.9 0 82
2017-11-19 01:00:00 5.9 8 Norte 16 Noroeste 0 987.1 0.3 80
2017-11-19 00:00:00 7.6 7 Noroeste 23 Noroeste 0 986.9 0.4 74
2017-11-18 23:00:00 8.4 17 Noroeste 34 Noroeste 0 986.9 0.7 72
2017-11-18 22:00:00 9.1 23 Noroeste 33 Oeste 0 986.8 1 69
2017-11-18 21:00:00 9.7 24 Noroeste 35 Noroeste 0 986.5 1.2 68
2017-11-18 20:00:00 10.4 26 Noroeste 38 Noroeste 0 986.2 1.2 67
2017-11-18 19:00:00 11.3 27 Noroeste 38 Noroeste 0 985.8 1.2 65
2017-11-18 18:00:00 12.5 25 Noroeste 43 Noroeste 0 985.3 0.6 59
2017-11-18 17:00:00 14.7 30 Noroeste 41 Noroeste 0 985 -0.3 51
2017-11-18 16:00:00 16.1 26 Noroeste 40 Noroeste 0 984.6 -1 48
2017-11-18 15:00:00 16.3 28 Noroeste 42 Oeste 0 984.7 -1.5 48
2017-11-18 14:00:00 16.1 31 Noroeste 42 Noroeste 0 985.3 -1.2 49
2017-11-18 13:00:00 15.2 33 Noroeste 49 Noroeste 0 985.6 -0.8 51
2017-11-18 12:00:00 14.3 37 Noroeste 51 Noroeste 0 986.2 0 54
2017-11-18 11:00:00 12.8 30 Noroeste 45 Noroeste 0 986.5 0.8 61
2017-11-18 10:00:00 10.7 24 Oeste 41 Oeste 0 986.4 1 67
2017-11-18 09:00:00 9.2 26 Noroeste 38 Noroeste 0 986.2 0.7 73
2017-11-18 08:00:00 8.5 27 Oeste 45 Oeste 0 985.7 0.5 74
2017-11-18 07:00:00 8.4 27 Oeste 41 Oeste 0 985.4 -0.2 73
2017-11-18 06:00:00 8.6 21 Oeste 38 Noroeste 0 985.5 -0.2 72
2017-11-18 05:00:00 9.1 29 Noroeste 38 Noroeste 0 985.2 -0.2 71
2017-11-18 04:00:00 9 18 Oeste 31 Oeste 0 985.6 0.1 70
2017-11-18 03:00:00 9.3 21 Oeste 40 Oeste 0 985.7 0.1 72
2017-11-18 02:00:00 10 28 Noroeste 42 Oeste 0 985.4 -0.1 67
2017-11-18 01:00:00 10 19 Noroeste 30 Oeste 0 985.5 0.5 66
2017-11-18 00:00:00 10.8 22 Noroeste 37 Oeste 0 985.6 0.9 64
2017-11-17 23:00:00 10.7 21 Noroeste 39 Noroeste 0 985.5 1 65
2017-11-17 22:00:00 11.5 31 Noroeste 43 Oeste 0 985 1.1 61
2017-11-17 21:00:00 11.6 30 Noroeste 41 Oeste 0 984.7 1.2 63
2017-11-17 20:00:00 12.5 28 Noroeste 39 Noroeste 0 984.5 1.1 56
2017-11-17 19:00:00 13.5 28 Noroeste 38 Noroeste 0 983.9 0.5 49
2017-11-17 18:00:00 14.4 18 Noroeste 28 Noroeste 0 983.5 -0.2 42
2017-11-17 17:00:00 17.6 17 Noroeste 27 Oeste 0 983.4 -1 31
2017-11-17 16:00:00 19.5 19 Noroeste 25 Noroeste 0 983.4 -1.8 27
2017-11-17 15:00:00 19.2 17 Noroeste 25 Noroeste 0 983.7 -2.5 28
2017-11-17 14:00:00 18.1 14 Noroeste 23 Oeste 0 984.4 -2.1 31
2017-11-17 13:00:00 15 4 Sudoeste 7 Oeste 0 985.2 -1.3 40
2017-11-17 12:00:00 11.5 3 Sur 4 Sur 0 986.2 -0.3 50
2017-11-17 11:00:00 9 0 Calma 5 Sur 0 986.5 0.4 57
2017-11-17 10:00:00 5.8 0 Calma 6 Norte 0 986.5 0.7 72
2017-11-17 09:00:00 1.7 2 Noroeste 5 Oeste 0 986.5 0.8 81
2017-11-17 08:00:00 -0.8 4 Noroeste 7 Noroeste 0 986.1 0.5 86
2017-11-17 07:00:00 -0.5 3 Noroeste 7 Noroeste 0 985.8 0.2 82
2017-11-17 06:00:00 0.1 4 Oeste 7 Noroeste 0 985.7 0.2 83
2017-11-17 05:00:00 0 3 Oeste 6 Norte 0 985.6 0 79
2017-11-17 04:00:00 0.8 2 Sudoeste 5 Sudeste 0 985.6 0.1 83
2017-11-17 03:00:00 1.6 2 Nordeste 9 Oeste 0 985.5 0.1 78
2017-11-17 02:00:00 2.3 3 Oeste 8 Este 0 985.6 0.3 76
2017-11-17 01:00:00 4.8 6 Este 20 Este 0 985.5 0.3 72
2017-11-17 00:00:00 2.9 6 Este 14 Este 0 985.4 0.3 78
2017-11-16 23:00:00 3.6 0 Calma 4 Nordeste 0 985.3 0.4 72
2017-11-16 22:00:00 4.4 3 Nordeste 6 Sudeste 0 985.2 0.4 66
2017-11-16 21:00:00 5.5 4 Sudeste 7 Sudeste 0 985.1 0.6 63
2017-11-16 20:00:00 6.9 2 Sudoeste 5 Noroeste 0 984.9 0.6 58
2017-11-16 19:00:00 9.4 4 Nordeste 7 Este 0 984.8 0.5 53
2017-11-16 18:00:00 12.2 7 Sudeste 9 Sudeste 0 984.5 0 44
2017-11-16 17:00:00 15.3 4 Sudeste 8 Sudeste 0 984.3 -0.8 32
2017-11-16 16:00:00 15.8 3 Sudeste 7 Sudeste 0 984.3 -1.3 31
2017-11-16 15:00:00 14.9 3 Nordeste 8 Nordeste 0 984.5 -1.9 33
2017-11-16 14:00:00 14.1 4 Sudoeste 9 Sudoeste 0 985.1 -1.6 37
2017-11-16 13:00:00 12.5 0 Calma 6 Oeste 0 985.6 -1 43
2017-11-16 12:00:00 10 2 Sur 7 Sudoeste 0 986.4 0.3 48
2017-11-16 11:00:00 6.9 3 Sur 7 Sur 0 986.7 1.1 61
2017-11-16 10:00:00 3.7 4 Sudoeste 6 Sur 0 986.6 1.6 72
2017-11-16 09:00:00 0.8 0 Calma 3 Norte 0 986.1 1.3 77
2017-11-16 08:00:00 -1.9 2 Oeste 3 Oeste 0 985.6 1 85
2017-11-16 07:00:00 -1.3 3 Oeste 6 Noroeste 0 985 0.4 84
2017-11-16 06:00:00 -0.1 2 Sudeste 5 Sudeste 0 984.8 0.2 84
2017-11-16 05:00:00 0.7 0 Calma 3 Noroeste 0 984.6 0 82
2017-11-16 04:00:00 1.1 0 Calma 8 Nordeste 0 984.6 0 80
2017-11-16 03:00:00 2.8 6 Nordeste 14 Este 0 984.6 0.4 71
2017-11-16 02:00:00 3.7 11 Este 13 Este 0 984.6 0.6 71
2017-11-16 01:00:00 4.1 10 Este 15 Este 0 984.6 1.1 70
2017-11-16 00:00:00 3.1 4 Nordeste 15 Este 0 984.2 1.1 69
2017-11-15 23:00:00 3 6 Este 13 Nordeste 0 984 1.1 70
2017-11-15 22:00:00 3.4 5 Sudeste 10 Sudeste 0 983.5 1 68
2017-11-15 21:00:00 4.6 6 Sudeste 9 Sudeste 0 983.1 0.9 60
2017-11-15 20:00:00 6.7 3 Sudeste 7 Sudeste 0 982.9 0.7 51
2017-11-15 19:00:00 8.6 3 Sudeste 10 Sudeste 0 982.5 0.1 44
2017-11-15 18:00:00 11.6 7 Sudeste 9 Sur 0 982.2 -0.6 35
2017-11-15 17:00:00 14.7 6 Sur 13 Noroeste 0 982.2 -1.1 29
2017-11-15 16:00:00 14.8 8 Oeste 16 Noroeste 0 982.4 -1.8 26
2017-11-15 15:00:00 14.2 12 Oeste 20 Noroeste 0 982.8 -2.2 27
2017-11-15 14:00:00 12.6 6 Oeste 14 Sudoeste 0 983.3 -2.3 31
2017-11-15 13:00:00 11.5 7 Oeste 15 Sudoeste 0 984.2 -1.7 39
2017-11-15 12:00:00 9.3 5 Oeste 10 Sudoeste 0 985 -0.8 54
2017-11-15 11:00:00 7.2 5 Oeste 10 Sur 0 985.6 -0.1 62
2017-11-15 10:00:00 5 6 Sudoeste 9 Sudoeste 0 985.9 0.4 71
2017-11-15 09:00:00 2 2 Sudeste 10 Sudoeste 0 985.8 0.2 83
2017-11-15 08:00:00 -0.3 7 Sudoeste 10 Noroeste 0 985.7 0.1 84
2017-11-15 07:00:00 -0.1 2 Sudeste 6 Noroeste 0 985.5 -0.3 80
2017-11-15 06:00:00 1.7 6 Noroeste 10 Oeste 0 985.6 -0.6 79
2017-11-15 05:00:00 2.1 3 Noroeste 10 Oeste 0 985.6 -0.6 79
2017-11-15 04:00:00 3 3 Noroeste 14 Noroeste 0 985.8 -0.4 74
2017-11-15 03:00:00 3.5 6 Noroeste 10 Oeste 0 986.2 0.1 73
2017-11-15 02:00:00 4.6 9 Noroeste 33 Noroeste 0 986.2 0 68
2017-11-15 01:00:00 5.9 25 Noroeste 42 Noroeste 0 986.2 0.5 63
2017-11-15 00:00:00 6 26 Noroeste 41 Noroeste 0 986.1 0.4 66
2017-11-14 23:00:00 6.5 30 Oeste 42 Oeste 0 986.2 0.9 62
2017-11-14 22:00:00 6.6 27 Noroeste 43 Noroeste 0 985.7 1 63
2017-11-14 21:00:00 7.2 29 Noroeste 48 Noroeste 0 985.7 1.6 60
2017-11-14 20:00:00 7.6 32 Noroeste 53 Noroeste 0 985.3 1.6 58
2017-11-14 19:00:00 8.4 37 Noroeste 58 Noroeste 0 984.7 0.9 51
2017-11-14 18:00:00 8.9 43 Noroeste 66 Noroeste 0 984.1 0.3 49
2017-11-14 17:00:00 10.3 44 Noroeste 57 Noroeste 0 983.7 -0.6 45
2017-11-14 16:00:00 11.8 41 Noroeste 64 Noroeste 0 983.8 -1.1 38
2017-11-14 15:00:00 11.8 45 Noroeste 65 Noroeste 0 983.8 -1.7 38
2017-11-14 14:00:00 11.7 46 Noroeste 71 Noroeste 0 984.3 -1.5 38
2017-11-14 13:00:00 10.9 51 Noroeste 68 Noroeste 0 984.9 -1.1 42
2017-11-14 12:00:00 10.3 42 Noroeste 68 Noroeste 0 985.5 0.2 43
2017-11-14 11:00:00 8.9 51 Noroeste 72 Noroeste 0 985.8 0.8 48
2017-11-14 10:00:00 8 48 Noroeste 68 Noroeste 0 986 1.9 50
2017-11-14 09:00:00 6.8 49 Noroeste 68 Noroeste 0 985.3 1.6 53
2017-11-14 08:00:00 5.9 45 Noroeste 78 Noroeste 0 985 1.2 58
2017-11-14 07:00:00 6 55 Noroeste 80 Noroeste 0 984.1 -0.9 58
2017-11-14 06:00:00 5.9 61 Noroeste 88 Noroeste 0 983.7 -2.2 59
2017-11-14 05:00:00 5.9 66 Noroeste 87 Noroeste 0 983.8 -2.3 59
2017-11-14 04:00:00 5.9 56 Noroeste 73 Noroeste 0 985 -1.5 59
2017-11-14 03:00:00 5.7 45 Noroeste 66 Noroeste 0 985.9 -1.1 63
2017-11-14 02:00:00 6.3 45 Noroeste 69 Noroeste 0 986.1 -0.9 61
2017-11-14 01:00:00 6.6 48 Noroeste 68 Noroeste 0 986.5 -0.6 60
2017-11-14 00:00:00 6.7 44 Noroeste 62 Noroeste 0 987 0.1 63
2017-11-13 23:00:00 6.8 41 Noroeste 61 Noroeste 0 987 0.1 63
2017-11-13 22:00:00 7.1 41 Noroeste 58 Noroeste 0 987.1 0.2 62
2017-11-13 21:00:00 7.1 37 Noroeste 53 Noroeste 0 986.9 0.2 63
2017-11-13 20:00:00 6.9 35 Noroeste 51 Noroeste 0 986.9 0.4 65
2017-11-13 19:00:00 7.3 32 Noroeste 57 Noroeste 0 986.9 0.8 63
2017-11-13 18:00:00 7.9 42 Noroeste 61 Noroeste 0 986.7 1.1 53
2017-11-13 17:00:00 9 41 Noroeste 62 Noroeste 0 986.5 0.9 47
2017-11-13 16:00:00 9.9 42 Noroeste 62 Noroeste 0 986.1 0.4 44
2017-11-13 15:00:00 10.4 42 Noroeste 65 Noroeste 0 985.6 -0.6 40
2017-11-13 14:00:00 10.6 45 Noroeste 66 Noroeste 0 985.6 -0.5 40
2017-11-13 13:00:00 10.3 44 Noroeste 62 Noroeste 0 985.7 -0.1 37
2017-11-13 12:00:00 10.2 43 Noroeste 60 Noroeste 0 986.2 0.8 38
2017-11-13 11:00:00 9.6 39 Noroeste 63 Oeste 0 986.1 1.8 52
2017-11-13 10:00:00 8.4 41 Noroeste 55 Noroeste 0 985.8 2.1 58
2017-11-13 09:00:00 7.2 30 Noroeste 41 Noroeste 0 985.4 2.4 64
2017-11-13 08:00:00 6.9 22 Oeste 42 Noroeste 0 984.3 1.5 70
2017-11-13 07:00:00 7.7 30 Noroeste 59 Noroeste 0 983.7 1.1 72
2017-11-13 06:00:00 8.2 36 Noroeste 56 Noroeste 0 983 -0.1 76
2017-11-13 05:00:00 9.5 34 Noroeste 52 Noroeste 0 982.8 -0.7 72
2017-11-13 04:00:00 10.3 28 Noroeste 54 Noroeste 0 982.6 -0.2 65
2017-11-13 03:00:00 10.8 22 Oeste 51 Noroeste 0 983.1 0.6 65
2017-11-13 02:00:00 11.7 27 Noroeste 55 Noroeste 0 983.5 1.1 62
2017-11-13 01:00:00 12.4 28 Noroeste 49 Noroeste 0 982.8 0.3 66
2017-11-13 00:00:00 13.7 29 Noroeste 50 Oeste 0 982.5 -0.4 71
2017-11-12 23:00:00 14.4 38 Oeste 57 Oeste 0 982.4 -0.7 68
2017-11-12 22:00:00 14.7 31 Oeste 49 Noroeste 0 982.5 -0.6 67
2017-11-12 21:00:00 14.7 28 Oeste 50 Noroeste 0 982.9 -0.2 69
2017-11-12 20:00:00 15.1 33 Oeste 46 Oeste 0 983.1 -0.2 67
2017-11-12 19:00:00 15 27 Noroeste 42 Noroeste 0 983.1 -0.6 65
2017-11-12 18:00:00 15.4 24 Noroeste 40 Noroeste 0 983.1 -1.2 61
2017-11-12 17:00:00 16.1 27 Noroeste 45 Noroeste 0 983.3 -1.5 57
2017-11-12 16:00:00 16.9 37 Noroeste 51 Noroeste 0 983.7 -1.3 52
2017-11-12 15:00:00 15.9 28 Noroeste 45 Oeste 0 984.3 -1.8 58
2017-11-12 14:00:00 16.6 32 Noroeste 49 Noroeste 0 984.8 -1.8 53
2017-11-12 13:00:00 16.3 30 Oeste 45 Noroeste 0 985 -2 53
2017-11-12 12:00:00 15.4 34 Oeste 47 Noroeste 0 986.1 -1.4 55
2017-11-12 11:00:00 14.4 37 Noroeste 51 Noroeste 0 986.6 -0.7 57
2017-11-12 10:00:00 13.6 29 Oeste 44 Oeste 0 987 -0.4 60
2017-11-12 09:00:00 11.6 15 Noroeste 22 Noroeste 0 987.5 -0.3 68
2017-11-12 08:00:00 10.4 12 Oeste 23 Oeste 0 987.3 -0.3 73
2017-11-12 07:00:00 10.2 14 Noroeste 26 Noroeste 0 987.4 -0.5 75
2017-11-12 06:00:00 9.6 15 Noroeste 27 Noroeste 0 987.8 -0.8 79
2017-11-12 05:00:00 8.5 20 Noroeste 31 Oeste 0 987.6 -1.3 81
2017-11-12 04:00:00 8.6 17 Oeste 25 Oeste 0 987.9 -1.4 80
2017-11-12 03:00:00 9.1 8 Oeste 23 Noroeste 0 988.6 -1.5 78
2017-11-12 02:00:00 9.8 9 Oeste 21 Noroeste 0 988.9 -1.4 76
2017-11-12 01:00:00 10 13 Noroeste 26 Noroeste 0 989.3 -1.2 77
2017-11-12 00:00:00 11.6 15 Noroeste 21 Noroeste 0 990.1 -0.4 71
2017-11-11 23:00:00 11.4 13 Noroeste 27 Noroeste 0 990.3 -0.5 72
2017-11-11 22:00:00 12.2 16 Noroeste 24 Noroeste 0 990.5 -0.4 69
2017-11-11 21:00:00 12.2 17 Noroeste 26 Oeste 0 990.5 -0.1 66
2017-11-11 20:00:00 12.1 13 Noroeste 32 Noroeste 0 990.8 0.3 71
2017-11-11 19:00:00 13.2 16 Noroeste 22 Noroeste 0 990.9 0.5 68
2017-11-11 18:00:00 13.4 18 Noroeste 46 Noroeste 0 990.6 -0.2 68
2017-11-11 17:00:00 15 28 Noroeste 44 Noroeste 0 990.5 -0.7 60
2017-11-11 16:00:00 15.4 32 Noroeste 44 Noroeste 0 990.4 -1.1 60
2017-11-11 15:00:00 15.3 33 Noroeste 46 Noroeste 0 990.8 -1.5 61
2017-11-11 14:00:00 15.3 33 Noroeste 50 Noroeste 0 991.2 -1.2 61
2017-11-11 13:00:00 15.1 32 Noroeste 45 Noroeste 0 991.5 -0.8 63
2017-11-11 12:00:00 15 28 Oeste 44 Noroeste 0 992.3 -0.3 63
2017-11-11 11:00:00 14 31 Noroeste 49 Noroeste 0 992.4 0.3 67
2017-11-11 10:00:00 12.8 29 Noroeste 40 Noroeste 0 992.3 0.3 71
2017-11-11 09:00:00 11.4 18 Noroeste 29 Noroeste 0 992.6 0.5 79
2017-11-11 08:00:00 11.3 22 Noroeste 34 Oeste 0 992.1 0.1 78
2017-11-11 07:00:00 11.2 19 Noroeste 30 Oeste 0 992 -0.2 78
2017-11-11 06:00:00 11.4 14 Oeste 28 Noroeste 0 992.1 -0.5 77
2017-11-11 05:00:00 11.1 19 Noroeste 37 Noroeste 0 992 -0.4 78
2017-11-11 04:00:00 11.1 13 Noroeste 20 Noroeste 0 992.2 -0.2 78
2017-11-11 03:00:00 11.3 12 Oeste 35 Noroeste 0 992.6 -0.3 78
2017-11-11 02:00:00 11 25 Noroeste 54 Noroeste 0 992.4 -1.4 84
2017-11-11 01:00:00 12 39 Noroeste 55 Noroeste 0 992.4 -1.3 75
2017-11-11 00:00:00 12 31 Noroeste 40 Noroeste 0 992.9 -0.6 74
2017-11-10 23:00:00 11.4 24 Noroeste 35 Oeste 0 993.8 0.4 76
2017-11-10 22:00:00 10.7 22 Oeste 30 Oeste 0 993.7 0.7 81
2017-11-10 21:00:00 11.5 15 Noroeste 35 Noroeste 0 993.5 1.1 82
2017-11-10 20:00:00 12.5 24 Noroeste 37 Noroeste 0 993.4 1.4 78
2017-11-10 19:00:00 12.6 23 Noroeste 41 Noroeste 0 993 1.2 75
2017-11-10 18:00:00 13.4 30 Noroeste 49 Noroeste 0 992.4 0.6 70
2017-11-10 17:00:00 13.7 27 Noroeste 44 Noroeste 0 992 0 68
2017-11-10 16:00:00 14.1 32 Noroeste 45 Noroeste 0 991.8 -0.9 70
2017-11-10 15:00:00 14.5 31 Noroeste 45 Noroeste 0 991.8 -1.5 66
2017-11-10 14:00:00 14.2 31 Noroeste 42 Noroeste 0 992 -1.4 66
2017-11-10 13:00:00 14.1 28 Noroeste 41 Noroeste 0 992.7 -0.5 66
2017-11-10 12:00:00 12.8 25 Noroeste 36 Noroeste 0 993.3 0.8 71
2017-11-10 11:00:00 11.6 23 Noroeste 35 Noroeste 0 993.4 1.5 75
2017-11-10 10:00:00 9.9 23 Noroeste 46 Noroeste 0 993.2 1.9 79
2017-11-10 09:00:00 9.8 31 Noroeste 46 Noroeste 0 992.5 1.1 77
2017-11-10 08:00:00 8.4 23 Oeste 44 Noroeste 0 991.9 0 82
2017-11-10 07:00:00 8.2 31 Noroeste 45 Noroeste 0 991.3 -0.8 79
2017-11-10 06:00:00 6.5 22 Noroeste 33 Noroeste 0 991.4 -0.9 79
2017-11-10 05:00:00 6.7 24 Noroeste 33 Noroeste 0 991.9 -0.1 78
2017-11-10 04:00:00 6.9 22 Oeste 34 Oeste 0 992.1 -0.1 76
2017-11-10 03:00:00 7.4 24 Oeste 33 Noroeste 0 992.3 -0.2 76
2017-11-10 02:00:00 7.3 21 Noroeste 39 Noroeste 0 992 -0.5 75
2017-11-10 01:00:00 8.1 28 Oeste 43 Oeste 0 992.2 0 73
2017-11-10 00:00:00 8.3 34 Oeste 44 Oeste 0 992.5 0.5 75
2017-11-09 23:00:00 8 27 Oeste 42 Oeste 0 992.5 0.7 79
2017-11-09 22:00:00 7.6 28 Noroeste 40 Noroeste 0 992.2 0.9 84
2017-11-09 21:00:00 8 26 Noroeste 50 Noroeste 0 992 1.5 83
2017-11-09 20:00:00 8.6 27 Noroeste 39 Noroeste 0 991.8 1.4 82
2017-11-09 19:00:00 8.4 32 Noroeste 48 Noroeste 0 991.3 1.1 83
2017-11-09 18:00:00 9.1 36 Noroeste 47 Noroeste 0 990.5 0.4 76
2017-11-09 17:00:00 9.8 33 Noroeste 50 Noroeste 0 990.4 0.1 71
2017-11-09 16:00:00 9.4 37 Noroeste 52 Noroeste 0 990.2 0 75
2017-11-09 15:00:00 9.6 34 Noroeste 46 Noroeste 0 990.1 -1.2 73
2017-11-09 14:00:00 10.8 34 Noroeste 53 Noroeste 0 990.3 -0.8 61
2017-11-09 13:00:00 11.3 37 Noroeste 51 Noroeste 0 990.2 -0.9 58
2017-11-09 12:00:00 11.3 30 Noroeste 46 Oeste 0 991.3 0.3 65
2017-11-09 11:00:00 9.3 25 Oeste 36 Oeste 0 991.1 1.4 72
2017-11-09 10:00:00 8 22 Oeste 35 Oeste 0 991.1 1.3 78
2017-11-09 09:00:00 7 13 Oeste 35 Noroeste 0 991 1.5 82
2017-11-09 08:00:00 6.8 27 Noroeste 40 Noroeste 0 989.7 0.2 80
2017-11-09 07:00:00 6.9 19 Noroeste 31 Noroeste 0 989.8 0.4 78
2017-11-09 06:00:00 6.3 21 Noroeste 30 Noroeste 0 989.5 -0.2 80
2017-11-09 05:00:00 5.2 19 Noroeste 29 Noroeste 0 989.5 -0.2 84
2017-11-09 04:00:00 4.5 10 Noroeste 23 Oeste 0 989.4 -0.6 88
2017-11-09 03:00:00 4.7 14 Noroeste 27 Noroeste 0 989.7 -0.7 86
2017-11-09 02:00:00 5.1 13 Noroeste 31 Noroeste 0 989.7 -0.8 84
2017-11-09 01:00:00 5.2 18 Oeste 34 Oeste 0 990 0 84
2017-11-09 00:00:00 4.7 18 Noroeste 28 Noroeste 0 990.4 0.6 85
2017-11-08 23:00:00 4.7 23 Noroeste 34 Noroeste 0 990.5 1.2 84
2017-11-08 22:00:00 4.4 21 Noroeste 30 Noroeste 0 990 0.9 88
2017-11-08 21:00:00 4.8 13 Noroeste 31 Noroeste 0 989.8 1 88
2017-11-08 20:00:00 5.7 24 Noroeste 33 Noroeste 0 989.3 1.1 83
2017-11-08 19:00:00 6.5 21 Noroeste 32 Noroeste 0 989.1 1.2 82
2017-11-08 18:00:00 7.4 19 Noroeste 38 Noroeste 0 988.8 1.3 75
2017-11-08 17:00:00 8 24 Oeste 41 Noroeste 0 988.2 0.9 75
2017-11-08 16:00:00 9.4 28 Noroeste 42 Noroeste 0 987.9 0 67
2017-11-08 15:00:00 10.9 26 Noroeste 44 Noroeste 0 987.5 -1 58
2017-11-08 14:00:00 10.9 30 Noroeste 44 Noroeste 0 987.3 -1 61
2017-11-08 13:00:00 10.3 28 Noroeste 44 Noroeste 0 987.9 0 63
2017-11-08 12:00:00 10.4 29 Noroeste 49 Oeste 0 988.5 0.8 62
2017-11-08 11:00:00 11.4 29 Noroeste 46 Noroeste 0 988.3 0.9 59
2017-11-08 10:00:00 9.9 27 Noroeste 36 Noroeste 0 987.9 1.1 67
2017-11-08 09:00:00 8.7 27 Oeste 42 Noroeste 0 987.7 1.1 72
2017-11-08 08:00:00 8.6 17 Noroeste 32 Oeste 0 987.4 1 74
2017-11-08 07:00:00 8.5 20 Oeste 34 Noroeste 0 986.8 0.6 75
2017-11-08 06:00:00 9 21 Noroeste 41 Oeste 0 986.6 0.4 73
2017-11-08 05:00:00 9.1 21 Noroeste 35 Noroeste 0 986.4 0.6 71
2017-11-08 04:00:00 9 20 Noroeste 31 Noroeste 0 986.2 0.6 71
2017-11-08 03:00:00 9.4 20 Noroeste 31 Noroeste 0 986.2 1.1 71
2017-11-08 02:00:00 9.8 13 Noroeste 26 Noroeste 0 985.8 0.7 74
2017-11-08 01:00:00 9.6 17 Noroeste 24 Noroeste 0 985.6 0.6 62
2017-11-08 00:00:00 8.9 14 Noroeste 18 Noroeste 0 985.1 0.2 59
2017-11-07 23:00:00 8.6 11 Noroeste 21 Noroeste 0 985.1 1.1 55
2017-11-07 22:00:00 9.1 14 Noroeste 31 Noroeste 0 985 1 49
2017-11-07 21:00:00 10 18 Noroeste 44 Norte 0 984.9 1.5 43
2017-11-07 20:00:00 10.3 22 Norte 40 Noroeste 0 984 1 38
2017-11-07 19:00:00 9.4 10 Noroeste 27 Noroeste 0 984 1.4 33
2017-11-07 18:00:00 10.9 16 Noroeste 32 Noroeste 0 983.4 0.6 30
2017-11-07 17:00:00 13.4 23 Noroeste 41 Noroeste 0 983 0.1 23
2017-11-07 16:00:00 14.3 27 Noroeste 38 Noroeste 0 982.6 -0.7 22
2017-11-07 15:00:00 14.2 25 Noroeste 44 Noroeste 0 982.8 -1.2 22
2017-11-07 14:00:00 13.4 32 Noroeste 55 Noroeste 0 982.9 -1.6 23
2017-11-07 13:00:00 12.6 35 Noroeste 55 Oeste 0 983.3 -1.3 24
2017-11-07 12:00:00 11.6 39 Noroeste 60 Noroeste 0 984 -0.5 27
2017-11-07 11:00:00 10.5 37 Noroeste 54 Noroeste 0 984.5 0.1 32
2017-11-07 10:00:00 8.6 35 Noroeste 56 Noroeste 0 984.6 0.2 45
2017-11-07 09:00:00 6.2 15 Noroeste 46 Noroeste 0 984.5 0.2 52
2017-11-07 08:00:00 6 26 Noroeste 50 Noroeste 0 984.4 1 51
2017-11-07 07:00:00 5.1 26 Noroeste 59 Noroeste 0 984.4 0.7 62
2017-11-07 06:00:00 5 30 Noroeste 63 Noroeste 0 984.3 -0.1 64
2017-11-07 05:00:00 5.7 47 Noroeste 68 Noroeste 0 983.4 -2 56
2017-11-07 04:00:00 5.3 42 Noroeste 59 Noroeste 0 983.7 -2.4 60
2017-11-07 03:00:00 5.7 39 Noroeste 48 Noroeste 0 984.4 -1.8 61
2017-11-07 02:00:00 6.3 28 Noroeste 44 Noroeste 0 985.4 -1 63
2017-11-07 01:00:00 7 33 Noroeste 50 Noroeste 0 986.1 -0.2 64
2017-11-07 00:00:00 7 33 Noroeste 48 Noroeste 0 986.2 -0.1 67
2017-11-06 23:00:00 7.5 33 Noroeste 48 Noroeste 0 986.4 0 69
2017-11-06 22:00:00 8 31 Noroeste 47 Noroeste 0 986.3 -0.3 72
2017-11-06 21:00:00 8.3 35 Noroeste 57 Noroeste 0 986.3 -0.2 71
2017-11-06 20:00:00 8.5 40 Noroeste 53 Noroeste 0 986.4 0 70
2017-11-06 19:00:00 8.8 38 Noroeste 55 Noroeste 0 986.6 0.3 65
2017-11-06 18:00:00 8.9 36 Noroeste 53 Noroeste 0 986.5 0.1 65
2017-11-06 17:00:00 10 39 Noroeste 64 Noroeste 0 986.4 -0.2 62
2017-11-06 16:00:00 11.2 41 Noroeste 69 Noroeste 0 986.3 -1.2 57
2017-11-06 15:00:00 12.1 46 Noroeste 70 Noroeste 0 986.4 -1.8 48
2017-11-06 14:00:00 11.6 44 Noroeste 62 Noroeste 0 986.6 -2.1 55
2017-11-06 13:00:00 11.7 38 Noroeste 64 Noroeste 0 987.5 -1.3 58
2017-11-06 12:00:00 11.3 39 Noroeste 55 Noroeste 0 988.2 -0.7 62
2017-11-06 11:00:00 10.5 36 Noroeste 49 Noroeste 0 988.7 0 66
2017-11-06 10:00:00 9.6 37 Noroeste 48 Noroeste 0 988.8 0.5 70
2017-11-06 09:00:00 8.5 30 Noroeste 41 Noroeste 0 988.9 0.5 74
2017-11-06 08:00:00 8 27 Noroeste 38 Noroeste 0 988.7 0.7 80
2017-11-06 07:00:00 7.9 23 Oeste 39 Noroeste 0 988.3 0.3 80
2017-11-06 06:00:00 7.9 20 Oeste 35 Noroeste 0 988.4 0.5 81
2017-11-06 05:00:00 8 28 Noroeste 45 Noroeste 0 988 -0.1 80
2017-11-06 04:00:00 8.6 28 Noroeste 47 Noroeste 0 988 -0.3 75
2017-11-06 03:00:00 8.6 27 Oeste 39 Oeste 0 987.9 -0.3 80
2017-11-06 02:00:00 8.4 24 Oeste 40 Noroeste 0.2 988.1 0.1 85
2017-11-06 01:00:00 8.7 21 Noroeste 31 Oeste 0 988.3 0.6 83
2017-11-06 00:00:00 9.2 21 Noroeste 31 Noroeste 0 988.2 0.9 84
2017-11-05 23:00:00 9.4 22 Noroeste 35 Noroeste 0 988 0.7 82
2017-11-05 22:00:00 10.1 25 Noroeste 37 Noroeste 0 987.7 0.6 75
2017-11-05 21:00:00 9.8 23 Noroeste 39 Noroeste 0 987.3 0.6 77
2017-11-05 20:00:00 10.6 29 Noroeste 40 Oeste 0 987.3 1 69
2017-11-05 19:00:00 10.9 26 Noroeste 38 Noroeste 0 987.1 0.9 68
2017-11-05 18:00:00 11 26 Noroeste 40 Noroeste 0 986.7 0.9 70
2017-11-05 17:00:00 12.1 27 Noroeste 46 Noroeste 0 986.3 0 66
2017-11-05 16:00:00 11.9 29 Noroeste 55 Noroeste 0 986.2 -0.2 68
2017-11-05 15:00:00 13.6 32 Noroeste 52 Noroeste 0.2 985.8 -0.8 57
2017-11-05 14:00:00 12.8 28 Noroeste 44 Oeste 0 986.3 -0.2 64
2017-11-05 13:00:00 13.4 34 Noroeste 53 Noroeste 0 986.4 -0.1 61
2017-11-05 12:00:00 13.3 35 Noroeste 53 Noroeste 0 986.6 0.7 59
2017-11-05 11:00:00 12.4 32 Noroeste 49 Noroeste 0 986.5 1.6 63
2017-11-05 10:00:00 11.7 28 Noroeste 41 Noroeste 0 986.5 2.4 71
2017-11-05 09:00:00 10.9 26 Noroeste 41 Noroeste 0 985.9 2.6 72
2017-11-05 08:00:00 9.7 24 Noroeste 35 Noroeste 0 984.9 2.4 80
2017-11-05 07:00:00 10.3 20 Noroeste 33 Noroeste 0 984.1 2.3 80
2017-11-05 06:00:00 11.3 22 Noroeste 36 Noroeste 0 983.3 1.8 77
2017-11-05 05:00:00 10.9 22 Noroeste 30 Noroeste 0 982.5 1.7 80
2017-11-05 04:00:00 11.7 23 Noroeste 36 Noroeste 0 981.8 1.7 82
2017-11-05 03:00:00 11.7 19 Noroeste 33 Noroeste 0 981.5 1.7 91
2017-11-05 02:00:00 12.7 19 Noroeste 33 Oeste 0 980.8 1.3 82
2017-11-05 01:00:00 12.4 15 Noroeste 28 Oeste 0 980.1 1.1 84
2017-11-05 00:00:00 12.7 17 Oeste 28 Oeste 0 979.8 1.8 83
2017-11-04 23:00:00 12.9 14 Noroeste 27 Oeste 0 979.5 2 86
2017-11-04 22:00:00 13.4 22 Oeste 30 Oeste 0 979 2.4 83
2017-11-04 21:00:00 13.9 23 Noroeste 36 Noroeste 0 978 2.1 78
2017-11-04 20:00:00 13.9 16 Noroeste 25 Noroeste 0 977.5 2 87
2017-11-04 19:00:00 14.7 11 Noroeste 15 Noroeste 0 976.6 1.5 86
2017-11-04 18:00:00 15.5 5 Norte 15 Noroeste 0 975.9 1.1 83
2017-11-04 17:00:00 16.6 11 Noroeste 22 Noroeste 0 975.5 0.3 79
2017-11-04 16:00:00 17.8 13 Noroeste 22 Sudoeste 0 975.1 -0.8 67
2017-11-04 15:00:00 17.9 15 Sudoeste 26 Sudoeste 0 974.8 -2 69
2017-11-04 14:00:00 18.2 14 Sudeste 21 Este 0 975.2 -1.6 71
2017-11-04 13:00:00 17.3 16 Este 22 Este 0 975.9 -1.1 75
2017-11-04 12:00:00 16.3 9 Este 23 Este 0 976.8 0.3 85
2017-11-04 11:00:00 15.1 14 Este 19 Este 0 976.8 0.6 91
2017-11-04 10:00:00 14.1 9 Este 14 Este 0.6 977 1 92
2017-11-04 09:00:00 13.4 5 Este 15 Este 0 976.5 0.9 91
2017-11-04 08:00:00 13 11 Sudeste 22 Este 0 976.2 0.3 93
2017-11-04 07:00:00 12.9 4 Norte 13 Este 0 976 -0.1 95
2017-11-04 06:00:00 13 4 Sudeste 14 Este 1 975.6 -0.6 94
2017-11-04 05:00:00 13.7 13 Sudeste 36 Sur 3.6 975.9 -0.9 91
2017-11-04 04:00:00 13.8 11 Sudeste 33 Sur 0.6 976.1 -0.9 88
2017-11-04 03:00:00 13.6 15 Este 22 Este 0 976.2 -1.1 85
2017-11-04 02:00:00 13.2 12 Este 19 Este 0 976.8 -0.7 84
2017-11-04 01:00:00 13.7 10 Nordeste 20 Este 0 977 -0.9 81
2017-11-04 00:00:00 13.9 16 Este 20 Este 0 977.3 -0.2 80
2017-11-03 23:00:00 14 15 Este 17 Este 0 977.5 0.3 79
2017-11-03 22:00:00 14.3 6 Este 23 Este 0 977.9 1.2 76
2017-11-03 21:00:00 15 20 Este 25 Este 0 977.5 1 73
2017-11-03 20:00:00 15.1 16 Este 24 Este 0 977.2 0.9 73
2017-11-03 19:00:00 16.6 17 Este 26 Este 0 976.7 0 68
2017-11-03 18:00:00 17.7 15 Este 24 Este 0 976.5 -0.5 65
2017-11-03 17:00:00 20 17 Este 24 Este 0 976.3 -1 54
2017-11-03 16:00:00 21.1 19 Este 26 Este 0 976.7 -1.4 50
2017-11-03 15:00:00 20 16 Este 29 Este 0 977 -2.1 55
2017-11-03 14:00:00 19.7 21 Este 33 Este 0 977.3 -2 58
2017-11-03 13:00:00 19.5 24 Este 35 Este 0 978.1 -1.4 61
2017-11-03 12:00:00 17.7 21 Este 30 Sudeste 0 979.1 0.4 71
2017-11-03 11:00:00 15.9 20 Este 28 Este 0 979.3 0.5 76
2017-11-03 10:00:00 15 17 Sudeste 30 Sudeste 0 979.5 1.1 80
2017-11-03 09:00:00 13.3 16 Este 23 Este 0 978.7 -0.2 88
2017-11-03 08:00:00 11.7 8 Este 17 Este 0 978.8 -0.2 89
2017-11-03 07:00:00 12.5 14 Este 26 Este 0 978.4 -1 89
2017-11-03 06:00:00 12.7 15 Este 23 Este 0 978.9 -1.1 89
2017-11-03 05:00:00 13.1 17 Sudeste 29 Este 0 979 -1.6 88
2017-11-03 04:00:00 12.8 17 Sudeste 25 Este 0 979.4 -1.5 88
2017-11-03 03:00:00 13.3 16 Sudeste 23 Este 0 980 -1.4 87
2017-11-03 02:00:00 13.7 18 Este 29 Este 0 980.6 -1.2 86
2017-11-03 01:00:00 14.3 16 Este 24 Este 0 980.9 -1.1 83
2017-11-03 00:00:00 13.7 9 Este 21 Este 0 981.4 -0.5 85
2017-11-02 23:00:00 13.5 17 Este 21 Este 0 981.8 -0.2 85
2017-11-02 22:00:00 13.8 14 Este 19 Este 0 982 0.1 82
2017-11-02 21:00:00 14.7 17 Este 23 Este 0 981.9 0.6 80
2017-11-02 20:00:00 15.5 18 Este 24 Este 0 982 0.9 75
2017-11-02 19:00:00 16.2 13 Sudeste 21 Sudeste 0 981.9 0.6 71
2017-11-02 18:00:00 17.5 13 Sudeste 28 Este 0 981.3 -0.5 65
2017-11-02 17:00:00 19.3 22 Este 32 Este 0 981.1 -1.6 59
2017-11-02 16:00:00 19.8 21 Este 30 Este 0 981.3 -2.1 57
2017-11-02 15:00:00 19.8 22 Este 30 Este 0 981.8 -2.6 58
2017-11-02 14:00:00 18.7 22 Este 30 Este 0 982.7 -2.1 63
2017-11-02 13:00:00 17.9 22 Este 30 Este 0 983.4 -1.6 68
2017-11-02 12:00:00 16.7 15 Este 23 Este 0 984.4 -0.5 75
2017-11-02 11:00:00 15.3 17 Este 24 Este 0 984.8 0.4 80
2017-11-02 10:00:00 13.7 12 Sudeste 22 Este 0 985 0.7 85
2017-11-02 09:00:00 11 8 Este 17 Este 0 984.9 0.7 94
2017-11-02 08:00:00 10.5 13 Este 17 Este 0 984.4 0.2 94
2017-11-02 07:00:00 9.8 3 Sudeste 9 Este 0 984.3 0 92
2017-11-02 06:00:00 11.2 2 Sudoeste 11 Sudoeste 0 984.2 -0.4 90
2017-11-02 05:00:00 12.2 5 Sudoeste 25 Sudeste 0 984.2 -0.7 88
2017-11-02 04:00:00 11.8 8 Sudeste 23 Este 0 984.3 -0.7 91
2017-11-02 03:00:00 12 15 Sudeste 22 Sudeste 0 984.6 -0.5 91
2017-11-02 02:00:00 12.5 14 Sudeste 19 Sudeste 0 984.9 -0.3 87
2017-11-02 01:00:00 12.2 13 Sudeste 21 Sudeste 0 985 -0.3 85
2017-11-02 00:00:00 12 17 Este 25 Este 0 985.1 0.2 85
2017-11-01 23:00:00 12.8 17 Este 23 Este 0 985.2 0.2 83
2017-11-01 22:00:00 13.1 15 Este 23 Este 0 985.3 0.8 80
2017-11-01 21:00:00 14.4 20 Este 25 Este 0 984.9 0.7 76
2017-11-01 20:00:00 14.4 15 Este 22 Este 0 985 1 74
2017-11-01 19:00:00 15.4 14 Este 21 Este 0 984.5 0.4 70
2017-11-01 18:00:00 17 16 Sudeste 28 Este 0 984.2 -0.3 64
2017-11-01 17:00:00 19.3 18 Este 27 Este 0 984 -1.2 55
2017-11-01 16:00:00 20.2 19 Este 27 Este 0 984.1 -2.2 49
2017-11-01 15:00:00 20.6 14 Sudeste 31 Sudeste 0 984.5 -2.5 47
2017-11-01 14:00:00 19.3 17 Este 30 Este 0 985.2 -2.4 55
2017-11-01 13:00:00 17.9 22 Este 31 Este 0 986.3 -1.6 61
2017-11-01 12:00:00 16.8 22 Este 31 Este 0 987 -0.7 66
2017-11-01 11:00:00 15.7 15 Este 24 Este 0 987.6 0.5 73
2017-11-01 10:00:00 13.6 6 Sudeste 19 Sudeste 0 987.9 1.4 79
2017-11-01 09:00:00 11 6 Sudeste 9 Sudeste 0 987.7 1.4 89
2017-11-01 08:00:00 9.4 9 Sudeste 16 Este 0 987.1 0.9 92
2017-11-01 07:00:00 8.7 11 Este 18 Sudeste 0 986.5 0.2 93
2017-11-01 06:00:00 9.3 8 Sudeste 17 Este 0 986.3 -0.1 91
2017-11-01 05:00:00 9.6 8 Sudeste 19 Sudeste 0 986.2 -0.4 89
2017-11-01 04:00:00 10 15 Sudeste 28 Este 0 986.3 -0.4 88
2017-11-01 03:00:00 10.7 18 Este 26 Sudeste 0 986.4 -0.3 82
2017-11-01 02:00:00 9.2 12 Este 21 Este 0 986.6 -0.2 83
2017-11-01 01:00:00 10.4 5 Este 22 Este 0 986.7 0.4 77
2017-11-01 00:00:00 9.9 14 Este 18 Este 0 986.7 0.3 78
2017-10-31 23:00:00 9.5 13 Este 26 Este 0 986.8 0.7 79
2017-10-31 22:00:00 10.3 19 Este 24 Este 0 986.3 0.5 75
2017-10-31 21:00:00 10 12 Este 17 Este 0 986.4 1.1 73
2017-10-31 20:00:00 12.1 10 Este 12 Este 0 986.1 1 62
2017-10-31 19:00:00 12.6 8 Este 12 Sudeste 0 985.8 0.8 62
2017-10-31 18:00:00 15.1 10 Sudeste 19 Este 0 985.3 -0.5 52
2017-10-31 17:00:00 17 16 Sudeste 27 Este 0 985.1 -1.2 46
2017-10-31 16:00:00 17.1 19 Este 26 Este 0 985 -1.9 45
2017-10-31 15:00:00 16.9 12 Este 18 Este 0 985.8 -1.8 44
2017-10-31 14:00:00 16.3 8 Este 17 Sudeste 0 986.3 -1.8 47
2017-10-31 13:00:00 15 6 Sudeste 11 Sur 0 986.9 -1.5 50
2017-10-31 12:00:00 13.6 3 Oeste -- -- -- 987.6 -0.3 53
2017-10-31 11:00:00 12 4 Oeste 8 Noroeste 0 988.1 0.7 57
2017-10-31 10:00:00 9.9 2 Noroeste 6 Sur 0 988.4 1.4 66
2017-10-31 09:00:00 7.3 3 Sur 12 Sudoeste 0 987.9 1.1 78
2017-10-31 08:00:00 5 10 Sudoeste 13 Sudoeste 0 987.4 0.7 88
2017-10-31 07:00:00 5.2 4 Sur 5 Sur 0 987 0.5 83
2017-10-31 06:00:00 6.2 4 Norte 9 Oeste 0 986.8 0.3 80
2017-10-31 05:00:00 6.7 4 Norte 14 Noroeste 0 986.7 0.2 79
2017-10-31 04:00:00 7.7 13 Noroeste 28 Noroeste 0 986.5 -0.1 75
2017-10-31 03:00:00 8.4 19 Noroeste 36 Oeste 0 986.5 0 72
2017-10-31 02:00:00 9.3 26 Oeste 40 Oeste 0 986.5 0.1 68
2017-10-31 01:00:00 9.7 28 Oeste 40 Oeste 0 986.6 0.7 67
2017-10-31 00:00:00 10 30 Oeste 43 Noroeste 0 986.5 1 66
2017-10-30 23:00:00 10.6 32 Noroeste 47 Noroeste 0 986.4 1.3 65
2017-10-30 22:00:00 11 33 Oeste 50 Noroeste 0 985.9 1.4 62
2017-10-30 21:00:00 11.5 35 Oeste 55 Noroeste 0 985.5 1.6 61
2017-10-30 20:00:00 12.2 36 Noroeste 58 Noroeste 0 985.1 2.1 59
2017-10-30 19:00:00 13 38 Noroeste 58 Noroeste 0 984.5 1.9 61
2017-10-30 18:00:00 14.3 41 Noroeste 61 Noroeste 0 983.9 1.7 60
2017-10-30 17:00:00 15.9 49 Noroeste 67 Noroeste 0 983 0.5 55
2017-10-30 16:00:00 17.2 45 Noroeste 64 Noroeste 0 982.6 -0.2 50
2017-10-30 15:00:00 18.2 44 Noroeste 59 Noroeste 0 982.2 -1.2 51
2017-10-30 14:00:00 18.4 42 Noroeste 62 Noroeste 0 982.5 -1.3 49
2017-10-30 13:00:00 17.9 45 Noroeste 61 Noroeste 0 982.8 -1.3 53
2017-10-30 12:00:00 18 39 Noroeste 54 Noroeste 0 983.4 -0.6 53
2017-10-30 11:00:00 17 39 Noroeste 56 Noroeste 0 983.8 -0.1 59
2017-10-30 10:00:00 15.9 40 Noroeste 52 Noroeste 0 984.1 0.3 68
2017-10-30 09:00:00 14.3 33 Oeste 49 Oeste 0 984 0 74
2017-10-30 08:00:00 13 34 Oeste 49 Oeste 0 983.9 -0.4 78
2017-10-30 07:00:00 13 36 Oeste 48 Oeste 0 983.8 -0.6 77
2017-10-30 06:00:00 12.4 30 Noroeste 41 Noroeste 0 984 -0.6 82
2017-10-30 05:00:00 12.6 26 Noroeste 44 Oeste 0 984.3 -0.5 78
2017-10-30 04:00:00 13 33 Oeste 46 Noroeste 0 984.4 -1.1 78
2017-10-30 03:00:00 13 31 Noroeste 51 Oeste 0 984.6 -0.9 80
2017-10-30 02:00:00 13.2 37 Oeste 51 Oeste 0 984.8 -1.4 80
2017-10-30 01:00:00 13.3 32 Oeste 53 Oeste 0 985.5 -1.2 79
2017-10-30 00:00:00 13.3 36 Noroeste 50 Oeste 0 985.5 -1.3 79
2017-10-29 23:00:00 13.9 37 Noroeste 49 Noroeste 0 986.2 -0.6 75
2017-10-29 22:00:00 13.7 33 Noroeste 56 Noroeste 0 986.7 -0.2 75
2017-10-29 21:00:00 14.1 37 Noroeste 55 Noroeste 0 986.8 0.2 72
2017-10-29 20:00:00 14.3 39 Noroeste 58 Noroeste 0 986.8 0.4 70
2017-10-29 19:00:00 14.5 40 Noroeste 60 Noroeste 0 986.9 0.4 66
2017-10-29 18:00:00 14.9 32 Noroeste 64 Noroeste 0 986.6 0.1 62
2017-10-29 17:00:00 16.1 42 Noroeste 66 Noroeste 0 986.4 -0.5 56
2017-10-29 16:00:00 17.4 44 Noroeste 65 Noroeste 0 986.5 -1.3 52
2017-10-29 15:00:00 18 46 Noroeste 65 Noroeste 0 986.5 -2.2 46
2017-10-29 14:00:00 18.3 44 Noroeste 66 Noroeste 0 986.9 -2 45
2017-10-29 13:00:00 17.8 45 Noroeste 62 Noroeste 0 987.8 -1.7 45
2017-10-29 12:00:00 17.1 44 Noroeste 59 Noroeste 0 988.7 -0.7 48
2017-10-29 11:00:00 15.9 41 Noroeste 57 Noroeste 0 988.9 -0.1 53
2017-10-29 10:00:00 14.1 34 Noroeste 48 Oeste 0 989.5 0.9 61
2017-10-29 09:00:00 12.6 28 Oeste 47 Oeste 0 989.4 0.9 65
2017-10-29 08:00:00 11.2 29 Noroeste 42 Oeste 0 989 0.8 70
2017-10-29 07:00:00 10.8 30 Noroeste 44 Oeste 0 988.6 0.4 71
2017-10-29 06:00:00 11.1 31 Oeste 46 Oeste 0 988.5 0 69
2017-10-29 05:00:00 11.2 37 Oeste 51 Noroeste 0 988.2 -0.9 68
2017-10-29 04:00:00 11.5 32 Noroeste 47 Oeste 0 988.2 -1.1 67
2017-10-29 03:00:00 11.6 31 Noroeste 48 Noroeste 0 988.5 -1.1 67
2017-10-29 02:00:00 11.8 28 Oeste 46 Noroeste 0 989.1 -0.7 65
2017-10-29 01:00:00 12.3 36 Noroeste 53 Noroeste 0 989.6 -0.6 66
2017-10-29 00:00:00 12.6 37 Noroeste 51 Noroeste 0 989.8 -0.3 66
2017-10-28 23:00:00 12.8 37 Noroeste 51 Noroeste 0 990 -0.2 66
2017-10-28 22:00:00 13.4 32 Noroeste 54 Noroeste 0 990.2 0.3 66
2017-10-28 21:00:00 14.1 39 Noroeste 54 Noroeste 0 990.1 0.5 64
2017-10-28 20:00:00 14.8 39 Noroeste 57 Noroeste 0 990.2 0.8 62
2017-10-28 19:00:00 15.8 33 Noroeste 51 Noroeste 0 989.9 0.5 60
2017-10-28 18:00:00 17.4 38 Noroeste 58 Noroeste 0 989.6 -0.2 53
2017-10-28 17:00:00 18.3 43 Noroeste 60 Noroeste 0 989.4 -1.1 52
2017-10-28 16:00:00 18.4 44 Noroeste 58 Noroeste 0 989.4 -1.8 53
2017-10-28 15:00:00 18.7 42 Noroeste 60 Oeste 0 989.8 -1.2 52
2017-10-28 14:00:00 18.6 41 Noroeste 63 Noroeste 0 990.5 -1 52
2017-10-28 13:00:00 18.1 43 Noroeste 67 Noroeste 0 991.2 -0.1 54
2017-10-28 12:00:00 17.4 50 Noroeste 68 Noroeste 0 991 -0.7 56
2017-10-28 11:00:00 16.5 42 Noroeste 64 Noroeste 0 991.5 0.1 61
2017-10-28 10:00:00 15.3 48 Noroeste 62 Noroeste 0 991.3 -0.3 66
2017-10-28 09:00:00 14.1 30 Noroeste 48 Noroeste 0 991.7 0.4 71
2017-10-28 08:00:00 13.9 31 Noroeste 47 Noroeste 0 991.4 -0.2 70
2017-10-28 07:00:00 14.2 33 Noroeste 64 Noroeste 0 991.6 -0.1 74
2017-10-28 06:00:00 14.8 45 Noroeste 59 Noroeste 0 991.3 -1.1 74
2017-10-28 05:00:00 15.1 43 Noroeste 63 Noroeste 0 991.6 -1.4 73
2017-10-28 04:00:00 14.8 40 Noroeste 62 Noroeste 0 991.7 -1.9 74
2017-10-28 03:00:00 15.3 38 Noroeste 56 Noroeste 0 992.4 -1.3 71
2017-10-28 02:00:00 16.3 45 Noroeste 67 Noroeste 0 993 -0.6 66
2017-10-28 01:00:00 16.7 23 Noroeste 54 Noroeste 0 993.6 0.1 69
2017-10-28 00:00:00 16.9 26 Noroeste 42 Noroeste 0 993.7 -0.1 67
2017-10-27 23:00:00 16.9 33 Noroeste 49 Noroeste 0 993.6 -0.1 67
2017-10-27 22:00:00 16.7 33 Noroeste 52 Noroeste 0 993.5 0.2 69
2017-10-27 21:00:00 16.9 26 Noroeste 48 Noroeste 0 993.8 0.9 67
2017-10-27 20:00:00 17.3 29 Noroeste 54 Noroeste 0 993.7 0.9 66
2017-10-27 19:00:00 18.3 44 Noroeste 62 Noroeste 0 993.3 0.6 62
2017-10-27 18:00:00 19.5 42 Noroeste 68 Noroeste 0 992.9 0.1 59
2017-10-27 17:00:00 20.3 42 Noroeste 69 Noroeste 0 992.8 -0.5 55
2017-10-27 16:00:00 20.6 48 Noroeste 72 Noroeste 0 992.7 -1.5 52
2017-10-27 15:00:00 20.8 49 Noroeste 68 Noroeste 0 992.8 -1.8 52
2017-10-27 14:00:00 20.9 47 Noroeste 62 Noroeste 0 993.3 -1.2 55
2017-10-27 13:00:00 19.8 36 Noroeste 54 Noroeste 0 994.2 0.2 60
2017-10-27 12:00:00 19.2 35 Noroeste 56 Noroeste 0 994.6 1.1 63
2017-10-27 11:00:00 17.3 36 Noroeste 52 Noroeste 0 994.5 1.2 67
2017-10-27 10:00:00 16.1 31 Oeste 46 Oeste 0 994 0.6 64
2017-10-27 09:00:00 14.9 26 Oeste 38 Oeste 0 993.5 0.3 65
2017-10-27 08:00:00 10.5 3 Noroeste 10 Noroeste 0 993.3 0.2 84
2017-10-27 07:00:00 9.3 4 Sur 7 Sur 0 993.4 0.1 88
2017-10-27 06:00:00 9.6 4 Sur 8 Sur 0 993.2 -0.2 88
2017-10-27 05:00:00 10.6 5 Sudoeste 9 Sudoeste 0 993.1 -0.3 83
2017-10-27 04:00:00 10.8 3 Sudoeste 5 Sudoeste 0 993.3 0 85
2017-10-27 03:00:00 10.7 3 Sudoeste 4 Sudoeste 0 993.4 0.2 81
2017-10-27 02:00:00 11.4 0 Calma 6 Este 0 993.4 0.7 82
2017-10-27 01:00:00 12.3 3 Norte 6 Nordeste 0 993.3 1 80
2017-10-27 00:00:00 12.7 5 Sudoeste 8 Sur 0 993.2 1.4 77
2017-10-26 23:00:00 13.1 4 Noroeste 6 Norte 0 992.7 1.5 75
2017-10-26 22:00:00 15 3 Oeste 5 Noroeste 0 992.3 1.6 69
2017-10-26 21:00:00 17.5 0 Calma 3 Sur 0 991.8 1.4 61
2017-10-26 20:00:00 19.5 0 Calma 14 Sudoeste 0 991.2 0.7 54
2017-10-26 19:00:00 22 12 Sudoeste 15 Sudoeste 0 990.7 0.1 47
2017-10-26 18:00:00 24.7 12 Sudoeste 16 Sudoeste 0 990.4 -0.7 38
2017-10-26 17:00:00 25.1 9 Sudoeste 13 Sudoeste 0 990.5 -1.3 38
2017-10-26 16:00:00 24.8 5 Sudoeste 12 Oeste 0 990.6 -1.9 39
2017-10-26 15:00:00 23.5 4 Sudoeste 12 Oeste 0 991.1 -1.5 44
2017-10-26 14:00:00 21.9 5 Sudoeste 9 Sudoeste 0 991.8 -0.9 48
2017-10-26 13:00:00 20.1 0 Calma 8 Norte 0 992.5 0.1 55
2017-10-26 12:00:00 16.9 3 Sur 8 Sur 0 992.6 1.2 63
2017-10-26 11:00:00 13.4 3 Sudoeste 8 Sur 0 992.7 1.6 74
2017-10-26 10:00:00 10.1 4 Sudoeste 7 Este 0 992.4 1.9 85
2017-10-26 09:00:00 7.5 9 Sudeste 11 Sudeste 0 991.4 1.5 94
2017-10-26 08:00:00 8.1 5 Noroeste 14 Sudeste 0 991.1 1.2 93
2017-10-26 07:00:00 9.6 3 Este 14 Sudeste 0 990.5 0.6 88
2017-10-26 06:00:00 10.2 10 Sudeste 17 Este 0 989.9 0 85
2017-10-26 05:00:00 11.7 7 Este 16 Este 0 989.9 0 79
2017-10-26 04:00:00 13 11 Este 17 Este 0 989.9 0.1 77
2017-10-26 03:00:00 13.3 5 Sudeste 14 Este 0 989.9 0.1 73
2017-10-26 02:00:00 14.5 12 Este 23 Este 0 989.9 0.4 69
2017-10-26 01:00:00 14.7 16 Este 22 Este 0 989.8 0.9 68
2017-10-26 00:00:00 15.5 20 Este 23 Este 0 989.8 1.2 64
2017-10-25 23:00:00 14.7 5 Nordeste 14 Este 0 989.5 1.3 68
2017-10-25 22:00:00 15.1 4 Sudeste 6 Sudeste 0 988.9 1.3 65
2017-10-25 21:00:00 16.8 0 Calma 7 Norte 0 988.6 1.3 61
2017-10-25 20:00:00 19.4 8 Nordeste 10 Sudoeste 0 988.2 1.1 52
2017-10-25 19:00:00 22.3 9 Sudoeste 15 Sudoeste 0 987.6 0.2 42
2017-10-25 18:00:00 24.5 12 Sudoeste 22 Sudeste 0 987.3 -0.6 35
2017-10-25 17:00:00 26.2 15 Sudeste 23 Sudeste 0 987.1 -1.6 27
2017-10-25 16:00:00 25.3 15 Este 22 Este 0 987.4 -2 29
2017-10-25 15:00:00 23.9 13 Este 21 Este 0 987.9 -1.9 30
2017-10-25 14:00:00 22 9 Este 18 Sudeste 0 988.7 -1.2 38
2017-10-25 13:00:00 20.1 8 Este 15 Sudeste 0 989.4 -0.2 46
2017-10-25 12:00:00 16.2 4 Nordeste 7 Norte 0 989.8 0.9 58
2017-10-25 11:00:00 13.2 4 Sur 7 Sur 0 989.9 1.2 69
2017-10-25 10:00:00 10.2 0 Calma 5 Sudoeste 0 989.6 1.1 82
2017-10-25 09:00:00 6.7 3 Sudoeste 7 Sudeste 0 988.9 0.4 91
2017-10-25 08:00:00 6.6 3 Sudeste 5 Sudeste 0 988.7 0.2 91
2017-10-25 07:00:00 7.4 2 Noroeste 4 Nordeste 0 988.5 -0.2 90
2017-10-25 06:00:00 8.4 0 Calma 8 Oeste 0 988.5 0 89
2017-10-25 05:00:00 8.9 4 Sur 7 Sudeste 0 988.5 0 87
2017-10-25 04:00:00 9.8 6 Noroeste 8 Noroeste 0 988.7 0.2 86
2017-10-25 03:00:00 10.1 5 Noroeste 7 Noroeste 0 988.5 0.2 84
2017-10-25 02:00:00 10.3 2 Oeste 9 Norte 0 988.5 0.6 79
2017-10-25 01:00:00 11 4 Noroeste 8 Sudoeste 0 988.5 1 80
2017-10-25 00:00:00 12 3 Oeste 5 Sur 0 988.3 1 76